Timmer, North Dakota
Current Conditions -  °F | °C
As of 7:35 AM on Wednesday 22 Oct 2014 (Local Time) from K7L2 Reporting Station
Broken Clouds Broken Clouds  
Wind Chill: 57°   Ceiling: 12000
Heat Index: 57°   Visibility: 10mi
Dew Point: 46°   Wind: 13mph
Humidity: 67%   Direction: 280°W
Pressure: 29.78"   Gusts: NA
Location:  46.2767°N, 100.811°W
Report Text: K7L2 221235Z AUTO 28011KT 10SM BKN120 14/08 A2978 RMK AO2 PWINO PNO
Loading
Personal Weather Stations






























Interactive Weather Map
Tropical Storm Tracking
New forecast layout! Learn more

10-Day Weather Forecast

Advertisements
Track Severe Weather on mobile